sensor_id;sensor_type;location;lat;lon;timestamp;temperature;humidity
31733;DHT22;18312;51.486;7.144;2023-03-01T00:01:36;-2.50;99.90
31733;DHT22;18312;51.486;7.144;2023-03-01T00:04:04;-2.30;99.90
31733;DHT22;18312;51.486;7.144;2023-03-01T00:06:31;-2.50;99.90
31733;DHT22;18312;51.486;7.144;2023-03-01T00:08:57;-2.60;99.90
31733;DHT22;18312;51.486;7.144;2023-03-01T00:11:25;-2.70;99.90
31733;DHT22;18312;51.486;7.144;2023-03-01T00:13:52;-2.90;99.90
31733;DHT22;18312;51.486;7.144;2023-03-01T00:16:20;-3.00;99.90
31733;DHT22;18312;51.486;7.144;2023-03-01T00:18:47;-3.10;99.90
31733;DHT22;18312;51.486;7.144;2023-03-01T00:21:15;-3.10;99.90
31733;DHT22;18312;51.486;7.144;2023-03-01T00:23:43;-3.00;99.90
31733;DHT22;18312;51.486;7.144;2023-03-01T00:26:12;-3.00;99.90
31733;DHT22;18312;51.486;7.144;2023-03-01T00:28:38;-3.00;99.90
31733;DHT22;18312;51.486;7.144;2023-03-01T00:31:06;-3.10;99.90
31733;DHT22;18312;51.486;7.144;2023-03-01T00:33:33;-3.00;99.90
31733;DHT22;18312;51.486;7.144;2023-03-01T00:36:00;-3.00;99.90
31733;DHT22;18312;51.486;7.144;2023-03-01T00:41:03;-3.30;99.90
31733;DHT22;18312;51.486;7.144;2023-03-01T00:43:30;-3.20;99.90
31733;DHT22;18312;51.486;7.144;2023-03-01T00:46:02;-3.30;99.90
31733;DHT22;18312;51.486;7.144;2023-03-01T00:48:29;-3.30;99.90
31733;DHT22;18312;51.486;7.144;2023-03-01T00:50:56;-3.20;99.90
31733;DHT22;18312;51.486;7.144;2023-03-01T00:53:23;-3.30;99.90
31733;DHT22;18312;51.486;7.144;2023-03-01T00:55:49;-3.20;99.90
31733;DHT22;18312;51.486;7.144;2023-03-01T00:58:18;-3.20;99.90
31733;DHT22;18312;51.486;7.144;2023-03-01T01:00:44;-3.30;99.90
31733;DHT22;18312;51.486;7.144;2023-03-01T01:03:11;-3.30;99.90
31733;DHT22;18312;51.486;7.144;2023-03-01T01:05:37;-3.30;99.90
31733;DHT22;18312;51.486;7.144;2023-03-01T01:08:04;-3.30;99.90
31733;DHT22;18312;51.486;7.144;2023-03-01T01:10:33;-3.40;99.90
31733;DHT22;18312;51.486;7.144;2023-03-01T01:12:59;-3.50;99.90
31733;DHT22;18312;51.486;7.144;2023-03-01T01:15:27;-3.40;99.90
31733;DHT22;18312;51.486;7.144;2023-03-01T01:17:54;-3.40;99.90
31733;DHT22;18312;51.486;7.144;2023-03-01T01:20:21;-3.30;99.90
31733;DHT22;18312;51.486;7.144;2023-03-01T01:22:55;-3.30;99.90
31733;DHT22;18312;51.486;7.144;2023-03-01T01:25:22;-3.40;99.90
31733;DHT22;18312;51.486;7.144;2023-03-01T01:27:50;-3.50;99.90
31733;DHT22;18312;51.486;7.144;2023-03-01T01:30:16;-3.60;99.90
31733;DHT22;18312;51.486;7.144;2023-03-01T01:32:45;-3.60;99.90
31733;DHT22;18312;51.486;7.144;2023-03-01T01:35:12;-3.50;99.90
31733;DHT22;18312;51.486;7.144;2023-03-01T01:37:38;-3.50;99.90
31733;DHT22;18312;51.486;7.144;2023-03-01T01:40:05;-3.40;99.90
31733;DHT22;18312;51.486;7.144;2023-03-01T01:42:32;-3.40;99.90
31733;DHT22;18312;51.486;7.144;2023-03-01T01:47:48;-3.50;99.90
31733;DHT22;18312;51.486;7.144;2023-03-01T01:50:16;-3.50;99.90
31733;DHT22;18312;51.486;7.144;2023-03-01T01:52:44;-3.50;99.90
31733;DHT22;18312;51.486;7.144;2023-03-01T01:55:13;-3.40;99.90
31733;DHT22;18312;51.486;7.144;2023-03-01T01:57:41;-3.40;99.90
31733;DHT22;18312;51.486;7.144;2023-03-01T02:00:10;-3.20;99.90
31733;DHT22;18312;51.486;7.144;2023-03-01T02:02:38;-3.20;99.90
31733;DHT22;18312;51.486;7.144;2023-03-01T02:05:08;-3.20;99.90
31733;DHT22;18312;51.486;7.144;2023-03-01T02:07:37;-3.20;99.90
31733;DHT22;18312;51.486;7.144;2023-03-01T02:10:05;-3.00;99.90
31733;DHT22;18312;51.486;7.144;2023-03-01T02:12:32;-3.30;99.90
31733;DHT22;18312;51.486;7.144;2023-03-01T02:15:00;-3.50;99.90
31733;DHT22;18312;51.486;7.144;2023-03-01T02:17:26;-3.60;99.90
31733;DHT22;18312;51.486;7.144;2023-03-01T02:19:57;-3.50;99.90
31733;DHT22;18312;51.486;7.144;2023-03-01T02:22:29;-3.50;99.90
31733;DHT22;18312;51.486;7.144;2023-03-01T02:24:59;-3.70;99.90
31733;DHT22;18312;51.486;7.144;2023-03-01T02:27:31;-3.50;99.90
31733;DHT22;18312;51.486;7.144;2023-03-01T02:30:01;-3.50;99.90
31733;DHT22;18312;51.486;7.144;2023-03-01T02:32:28;-3.50;99.90
31733;DHT22;18312;51.486;7.144;2023-03-01T02:34:54;-3.50;99.90
31733;DHT22;18312;51.486;7.144;2023-03-01T02:37:21;-3.50;99.90
31733;DHT22;18312;51.486;7.144;2023-03-01T02:39:50;-3.70;99.90
31733;DHT22;18312;51.486;7.144;2023-03-01T02:42:21;-3.70;99.90
31733;DHT22;18312;51.486;7.144;2023-03-01T02:44:49;-3.70;99.90
31733;DHT22;18312;51.486;7.144;2023-03-01T02:47:17;-3.70;99.90
31733;DHT22;18312;51.486;7.144;2023-03-01T02:49:43;-3.50;99.90
31733;DHT22;18312;51.486;7.144;2023-03-01T02:52:16;-3.50;99.90
31733;DHT22;18312;51.486;7.144;2023-03-01T02:54:44;-3.70;99.90
31733;DHT22;18312;51.486;7.144;2023-03-01T02:57:13;-3.80;99.90
31733;DHT22;18312;51.486;7.144;2023-03-01T02:59:40;-3.90;99.90
31733;DHT22;18312;51.486;7.144;2023-03-01T03:02:18;-3.80;99.90
31733;DHT22;18312;51.486;7.144;2023-03-01T03:04:48;-3.80;99.90
31733;DHT22;18312;51.486;7.144;2023-03-01T03:07:15;-3.90;99.90
31733;DHT22;18312;51.486;7.144;2023-03-01T03:09:42;-3.90;99.90
31733;DHT22;18312;51.486;7.144;2023-03-01T03:12:08;-3.90;99.90
31733;DHT22;18312;51.486;7.144;2023-03-01T03:14:35;-3.90;99.90
31733;DHT22;18312;51.486;7.144;2023-03-01T03:17:02;-3.80;99.90
31733;DHT22;18312;51.486;7.144;2023-03-01T03:19:31;-3.90;99.90
31733;DHT22;18312;51.486;7.144;2023-03-01T03:21:59;-4.00;99.90
31733;DHT22;18312;51.486;7.144;2023-03-01T03:24:27;-4.00;99.90
31733;DHT22;18312;51.486;7.144;2023-03-01T03:27:03;-4.00;99.90
31733;DHT22;18312;51.486;7.144;2023-03-01T03:29:30;-4.00;99.90
31733;DHT22;18312;51.486;7.144;2023-03-01T03:31:56;-4.00;99.90
31733;DHT22;18312;51.486;7.144;2023-03-01T03:34:23;-4.10;99.90
31733;DHT22;18312;51.486;7.144;2023-03-01T03:36:52;-4.00;99.90
31733;DHT22;18312;51.486;7.144;2023-03-01T03:39:23;-4.10;99.90
31733;DHT22;18312;51.486;7.144;2023-03-01T03:41:50;-4.10;99.90
31733;DHT22;18312;51.486;7.144;2023-03-01T03:44:17;-4.10;99.90
31733;DHT22;18312;51.486;7.144;2023-03-01T03:46:43;-4.10;99.90
31733;DHT22;18312;51.486;7.144;2023-03-01T03:49:10;-4.20;99.90
31733;DHT22;18312;51.486;7.144;2023-03-01T03:51:37;-4.20;99.90
31733;DHT22;18312;51.486;7.144;2023-03-01T03:54:03;-4.10;99.90
31733;DHT22;18312;51.486;7.144;2023-03-01T03:56:31;-4.20;99.90
31733;DHT22;18312;51.486;7.144;2023-03-01T03:58:58;-4.20;99.90
31733;DHT22;18312;51.486;7.144;2023-03-01T04:01:25;-4.20;99.90
31733;DHT22;18312;51.486;7.144;2023-03-01T04:03:52;-4.30;99.90
31733;DHT22;18312;51.486;7.144;2023-03-01T04:06:19;-4.30;99.90
31733;DHT22;18312;51.486;7.144;2023-03-01T04:08:46;-4.30;99.90
31733;DHT22;18312;51.486;7.144;2023-03-01T04:11:16;-4.40;99.90
31733;DHT22;18312;51.486;7.144;2023-03-01T04:13:56;-4.30;99.90
31733;DHT22;18312;51.486;7.144;2023-03-01T04:16:23;-4.20;99.90
31733;DHT22;18312;51.486;7.144;2023-03-01T04:18:50;-4.30;99.90
31733;DHT22;18312;51.486;7.144;2023-03-01T04:21:19;-4.30;99.90
31733;DHT22;18312;51.486;7.144;2023-03-01T04:23:45;-4.30;99.90
31733;DHT22;18312;51.486;7.144;2023-03-01T04:26:12;-4.30;99.90
31733;DHT22;18312;51.486;7.144;2023-03-01T04:28:39;-4.40;99.90
31733;DHT22;18312;51.486;7.144;2023-03-01T04:31:10;-4.40;99.90
31733;DHT22;18312;51.486;7.144;2023-03-01T04:33:39;-4.30;99.90
31733;DHT22;18312;51.486;7.144;2023-03-01T04:36:08;-4.20;99.90
31733;DHT22;18312;51.486;7.144;2023-03-01T04:38:35;-4.10;99.90
31733;DHT22;18312;51.486;7.144;2023-03-01T04:41:03;-4.10;99.90
31733;DHT22;18312;51.486;7.144;2023-03-01T04:43:30;-4.20;99.90
31733;DHT22;18312;51.486;7.144;2023-03-01T04:45:59;-4.20;99.90
31733;DHT22;18312;51.486;7.144;2023-03-01T04:48:29;-4.30;99.90
31733;DHT22;18312;51.486;7.144;2023-03-01T04:50:56;-4.20;99.90
31733;DHT22;18312;51.486;7.144;2023-03-01T04:53:23;-4.30;99.90
31733;DHT22;18312;51.486;7.144;2023-03-01T04:55:50;-4.30;99.90
31733;DHT22;18312;51.486;7.144;2023-03-01T04:58:16;-4.30;99.90
31733;DHT22;18312;51.486;7.144;2023-03-01T05:00:43;-4.30;99.90
31733;DHT22;18312;51.486;7.144;2023-03-01T05:03:10;-3.90;99.90
31733;DHT22;18312;51.486;7.144;2023-03-01T05:05:38;-3.70;99.90
31733;DHT22;18312;51.486;7.144;2023-03-01T05:08:06;-3.70;99.90
31733;DHT22;18312;51.486;7.144;2023-03-01T05:10:34;-3.90;99.90
31733;DHT22;18312;51.486;7.144;2023-03-01T05:13:01;-3.60;99.90
31733;DHT22;18312;51.486;7.144;2023-03-01T05:15:29;-3.70;99.90
31733;DHT22;18312;51.486;7.144;2023-03-01T05:17:57;-3.90;99.90
31733;DHT22;18312;51.486;7.144;2023-03-01T05:20:24;-3.80;99.90
31733;DHT22;18312;51.486;7.144;2023-03-01T05:22:54;-3.90;99.90
31733;DHT22;18312;51.486;7.144;2023-03-01T05:25:21;-4.00;99.90
31733;DHT22;18312;51.486;7.144;2023-03-01T05:27:48;-4.10;99.90
31733;DHT22;18312;51.486;7.144;2023-03-01T05:30:17;-4.20;99.90
31733;DHT22;18312;51.486;7.144;2023-03-01T05:32:45;-4.30;99.90
31733;DHT22;18312;51.486;7.144;2023-03-01T05:35:12;-4.30;99.90
31733;DHT22;18312;51.486;7.144;2023-03-01T05:37:43;-4.30;99.90
31733;DHT22;18312;51.486;7.144;2023-03-01T05:40:13;-4.20;99.90
31733;DHT22;18312;51.486;7.144;2023-03-01T05:42:45;-4.20;99.90
31733;DHT22;18312;51.486;7.144;2023-03-01T05:45:18;-4.30;99.90
31733;DHT22;18312;51.486;7.144;2023-03-01T05:47:48;-4.40;99.90
31733;DHT22;18312;51.486;7.144;2023-03-01T05:50:16;-4.30;99.90
31733;DHT22;18312;51.486;7.144;2023-03-01T05:52:49;-4.30;99.90
31733;DHT22;18312;51.486;7.144;2023-03-01T05:55:21;-4.30;99.90
31733;DHT22;18312;51.486;7.144;2023-03-01T05:57:50;-4.30;99.90
31733;DHT22;18312;51.486;7.144;2023-03-01T06:00:18;-4.30;99.90
31733;DHT22;18312;51.486;7.144;2023-03-01T06:02:47;-4.40;99.90
31733;DHT22;18312;51.486;7.144;2023-03-01T06:05:14;-4.50;99.90
31733;DHT22;18312;51.486;7.144;2023-03-01T06:07:50;-4.70;99.90
31733;DHT22;18312;51.486;7.144;2023-03-01T06:10:20;-4.80;99.90
31733;DHT22;18312;51.486;7.144;2023-03-01T06:12:47;-5.00;99.90
31733;DHT22;18312;51.486;7.144;2023-03-01T06:15:15;-5.00;99.90
31733;DHT22;18312;51.486;7.144;2023-03-01T06:17:43;-5.00;99.90
31733;DHT22;18312;51.486;7.144;2023-03-01T06:20:16;-4.60;99.90
31733;DHT22;18312;51.486;7.144;2023-03-01T06:22:49;-4.60;99.90
31733;DHT22;18312;51.486;7.144;2023-03-01T06:25:24;-4.50;99.90
31733;DHT22;18312;51.486;7.144;2023-03-01T06:27:53;-4.50;99.90
31733;DHT22;18312;51.486;7.144;2023-03-01T06:30:25;-4.50;99.90
31733;DHT22;18312;51.486;7.144;2023-03-01T06:32:56;-4.50;99.90
31733;DHT22;18312;51.486;7.144;2023-03-01T06:35:26;-4.50;99.90
31733;DHT22;18312;51.486;7.144;2023-03-01T06:38:02;-4.50;99.90
31733;DHT22;18312;51.486;7.144;2023-03-01T06:40:31;-4.60;99.90
31733;DHT22;18312;51.486;7.144;2023-03-01T06:43:00;-4.50;99.90
31733;DHT22;18312;51.486;7.144;2023-03-01T06:45:29;-4.40;99.90
31733;DHT22;18312;51.486;7.144;2023-03-01T06:48:05;-4.20;99.90
31733;DHT22;18312;51.486;7.144;2023-03-01T06:50:32;-4.30;99.90
31733;DHT22;18312;51.486;7.144;2023-03-01T06:52:59;-4.40;99.90
31733;DHT22;18312;51.486;7.144;2023-03-01T06:55:26;-4.30;99.90
31733;DHT22;18312;51.486;7.144;2023-03-01T06:57:55;-4.40;99.90
31733;DHT22;18312;51.486;7.144;2023-03-01T07:00:22;-4.30;99.90
31733;DHT22;18312;51.486;7.144;2023-03-01T07:02:49;-4.00;99.90
31733;DHT22;18312;51.486;7.144;2023-03-01T07:05:16;-3.90;99.90
31733;DHT22;18312;51.486;7.144;2023-03-01T07:07:46;-3.70;99.90
31733;DHT22;18312;51.486;7.144;2023-03-01T07:10:23;-3.50;99.90
31733;DHT22;18312;51.486;7.144;2023-03-01T07:12:50;-3.30;99.90
31733;DHT22;18312;51.486;7.144;2023-03-01T07:15:22;-3.20;99.90
31733;DHT22;18312;51.486;7.144;2023-03-01T07:17:51;-3.10;99.90
31733;DHT22;18312;51.486;7.144;2023-03-01T07:20:18;-3.00;99.90
31733;DHT22;18312;51.486;7.144;2023-03-01T07:22:47;-2.80;99.90
31733;DHT22;18312;51.486;7.144;2023-03-01T07:25:14;-0.30;99.90
31733;DHT22;18312;51.486;7.144;2023-03-01T07:27:41;2.00;99.90
31733;DHT22;18312;51.486;7.144;2023-03-01T07:30:08;3.50;99.90
31733;DHT22;18312;51.486;7.144;2023-03-01T07:32:37;1.80;99.90
31733;DHT22;18312;51.486;7.144;2023-03-01T07:35:04;0.40;99.90
31733;DHT22;18312;51.486;7.144;2023-03-01T07:37:30;-0.30;99.90
31733;DHT22;18312;51.486;7.144;2023-03-01T07:39:57;-0.40;99.90
31733;DHT22;18312;51.486;7.144;2023-03-01T07:42:24;1.50;99.90
31733;DHT22;18312;51.486;7.144;2023-03-01T07:44:50;3.10;99.90
31733;DHT22;18312;51.486;7.144;2023-03-01T07:47:17;5.10;99.60
31733;DHT22;18312;51.486;7.144;2023-03-01T07:49:44;5.80;94.70
31733;DHT22;18312;51.486;7.144;2023-03-01T07:52:11;6.90;91.50
31733;DHT22;18312;51.486;7.144;2023-03-01T07:54:38;7.10;89.90
31733;DHT22;18312;51.486;7.144;2023-03-01T07:57:04;8.70;80.90
31733;DHT22;18312;51.486;7.144;2023-03-01T07:59:31;9.80;71.70
31733;DHT22;18312;51.486;7.144;2023-03-01T08:01:58;10.20;66.30
31733;DHT22;18312;51.486;7.144;2023-03-01T08:04:25;10.40;64.90
31733;DHT22;18312;51.486;7.144;2023-03-01T08:06:53;10.90;61.80
31733;DHT22;18312;51.486;7.144;2023-03-01T08:09:20;10.10;60.80
31733;DHT22;18312;51.486;7.144;2023-03-01T08:11:46;9.40;61.20
31733;DHT22;18312;51.486;7.144;2023-03-01T08:14:13;9.50;60.40
31733;DHT22;18312;51.486;7.144;2023-03-01T08:16:40;9.30;60.50
31733;DHT22;18312;51.486;7.144;2023-03-01T08:19:08;9.60;59.60
31733;DHT22;18312;51.486;7.144;2023-03-01T08:21:35;9.10;61.30
31733;DHT22;18312;51.486;7.144;2023-03-01T08:24:03;7.70;61.70
31733;DHT22;18312;51.486;7.144;2023-03-01T08:26:31;4.90;70.40
31733;DHT22;18312;51.486;7.144;2023-03-01T08:28:57;4.10;76.30
31733;DHT22;18312;51.486;7.144;2023-03-01T08:31:25;5.00;73.90
31733;DHT22;18312;51.486;7.144;2023-03-01T08:33:54;6.60;69.90
31733;DHT22;18312;51.486;7.144;2023-03-01T08:36:21;7.70;66.00
31733;DHT22;18312;51.486;7.144;2023-03-01T08:38:48;10.30;62.10
31733;DHT22;18312;51.486;7.144;2023-03-01T08:41:15;9.20;60.70
31733;DHT22;18312;51.486;7.144;2023-03-01T08:43:42;10.30;58.50
31733;DHT22;18312;51.486;7.144;2023-03-01T08:46:09;10.40;56.60
31733;DHT22;18312;51.486;7.144;2023-03-01T08:48:36;11.00;56.00
31733;DHT22;18312;51.486;7.144;2023-03-01T08:51:09;10.00;56.00
31733;DHT22;18312;51.486;7.144;2023-03-01T08:53:35;8.40;59.70
31733;DHT22;18312;51.486;7.144;2023-03-01T08:56:02;8.10;59.70
31733;DHT22;18312;51.486;7.144;2023-03-01T08:58:30;5.40;65.90
31733;DHT22;18312;51.486;7.144;2023-03-01T09:00:56;3.90;71.70
31733;DHT22;18312;51.486;7.144;2023-03-01T09:03:23;3.00;76.60
31733;DHT22;18312;51.486;7.144;2023-03-01T09:05:50;2.50;79.60
31733;DHT22;18312;51.486;7.144;2023-03-01T09:08:16;2.20;82.50
31733;DHT22;18312;51.486;7.144;2023-03-01T09:10:43;2.10;84.10
31733;DHT22;18312;51.486;7.144;2023-03-01T09:13:09;2.10;86.60
31733;DHT22;18312;51.486;7.144;2023-03-01T09:15:37;2.10;87.10
31733;DHT22;18312;51.486;7.144;2023-03-01T09:18:04;2.20;88.20
31733;DHT22;18312;51.486;7.144;2023-03-01T09:20:31;2.20;88.60
31733;DHT22;18312;51.486;7.144;2023-03-01T09:22:58;2.20;88.10
31733;DHT22;18312;51.486;7.144;2023-03-01T09:25:24;2.30;89.40
31733;DHT22;18312;51.486;7.144;2023-03-01T09:27:51;2.30;89.30
31733;DHT22;18312;51.486;7.144;2023-03-01T09:30:17;2.50;88.50
31733;DHT22;18312;51.486;7.144;2023-03-01T09:32:46;2.50;89.10
31733;DHT22;18312;51.486;7.144;2023-03-01T09:35:12;2.60;89.80
31733;DHT22;18312;51.486;7.144;2023-03-01T09:37:39;2.70;88.40
31733;DHT22;18312;51.486;7.144;2023-03-01T09:40:11;2.80;88.00
31733;DHT22;18312;51.486;7.144;2023-03-01T09:42:45;2.80;86.90
31733;DHT22;18312;51.486;7.144;2023-03-01T09:45:15;2.90;86.80
31733;DHT22;18312;51.486;7.144;2023-03-01T09:47:46;2.80;86.10
31733;DHT22;18312;51.486;7.144;2023-03-01T09:50:14;2.90;86.70
31733;DHT22;18312;51.486;7.144;2023-03-01T09:52:43;3.00;85.10
31733;DHT22;18312;51.486;7.144;2023-03-01T09:55:11;3.00;85.50
31733;DHT22;18312;51.486;7.144;2023-03-01T09:57:40;3.20;85.90
31733;DHT22;18312;51.486;7.144;2023-03-01T10:00:11;3.20;85.00
31733;DHT22;18312;51.486;7.144;2023-03-01T10:02:41;3.20;84.40
31733;DHT22;18312;51.486;7.144;2023-03-01T10:05:14;3.30;84.90
31733;DHT22;18312;51.486;7.144;2023-03-01T10:07:46;3.30;84.20
31733;DHT22;18312;51.486;7.144;2023-03-01T10:10:16;3.30;83.30
31733;DHT22;18312;51.486;7.144;2023-03-01T10:12:48;3.40;84.10
31733;DHT22;18312;51.486;7.144;2023-03-01T10:15:15;3.40;82.90
31733;DHT22;18312;51.486;7.144;2023-03-01T10:17:44;3.40;83.00
31733;DHT22;18312;51.486;7.144;2023-03-01T10:20:18;3.60;83.80
31733;DHT22;18312;51.486;7.144;2023-03-01T10:22:45;3.70;82.20
31733;DHT22;18312;51.486;7.144;2023-03-01T10:25:16;3.70;81.60
31733;DHT22;18312;51.486;7.144;2023-03-01T10:27:45;3.70;80.30
31733;DHT22;18312;51.486;7.144;2023-03-01T10:30:16;3.80;81.60
31733;DHT22;18312;51.486;7.144;2023-03-01T10:32:45;3.80;80.70
31733;DHT22;18312;51.486;7.144;2023-03-01T10:35:19;3.80;80.00
31733;DHT22;18312;51.486;7.144;2023-03-01T10:37:56;3.70;79.30
31733;DHT22;18312;51.486;7.144;2023-03-01T10:40:23;3.70;78.90
31733;DHT22;18312;51.486;7.144;2023-03-01T10:42:49;3.70;80.30
31733;DHT22;18312;51.486;7.144;2023-03-01T10:45:17;3.70;79.40
31733;DHT22;18312;51.486;7.144;2023-03-01T10:47:53;3.80;79.80
31733;DHT22;18312;51.486;7.144;2023-03-01T10:50:30;3.80;80.10
31733;DHT22;18312;51.486;7.144;2023-03-01T10:52:58;3.90;80.30
31733;DHT22;18312;51.486;7.144;2023-03-01T10:55:27;4.00;80.00
31733;DHT22;18312;51.486;7.144;2023-03-01T10:58:05;4.00;80.50
31733;DHT22;18312;51.486;7.144;2023-03-01T11:00:32;4.10;80.20
31733;DHT22;18312;51.486;7.144;2023-03-01T11:03:04;4.20;79.30
31733;DHT22;18312;51.486;7.144;2023-03-01T11:05:37;4.20;78.90
31733;DHT22;18312;51.486;7.144;2023-03-01T11:08:26;4.20;78.00
31733;DHT22;18312;51.486;7.144;2023-03-01T11:11:03;4.20;76.80
31733;DHT22;18312;51.486;7.144;2023-03-01T11:13:30;4.20;76.70
31733;DHT22;18312;51.486;7.144;2023-03-01T11:15:59;4.30;76.40
31733;DHT22;18312;51.486;7.144;2023-03-01T11:18:26;4.40;77.10
31733;DHT22;18312;51.486;7.144;2023-03-01T11:20:56;4.30;77.60
31733;DHT22;18312;51.486;7.144;2023-03-01T11:23:25;4.50;77.90
31733;DHT22;18312;51.486;7.144;2023-03-01T11:25:53;4.60;76.70
31733;DHT22;18312;51.486;7.144;2023-03-01T11:28:24;4.70;75.90
31733;DHT22;18312;51.486;7.144;2023-03-01T11:31:02;4.80;75.80
31733;DHT22;18312;51.486;7.144;2023-03-01T11:33:42;4.80;76.50
31733;DHT22;18312;51.486;7.144;2023-03-01T11:36:13;4.90;77.00
31733;DHT22;18312;51.486;7.144;2023-03-01T11:38:42;4.80;75.10
31733;DHT22;18312;51.486;7.144;2023-03-01T11:41:12;4.90;75.40
31733;DHT22;18312;51.486;7.144;2023-03-01T11:43:43;4.90;74.20
31733;DHT22;18312;51.486;7.144;2023-03-01T11:46:24;4.90;74.30
31733;DHT22;18312;51.486;7.144;2023-03-01T11:48:58;4.90;74.60
31733;DHT22;18312;51.486;7.144;2023-03-01T11:51:35;5.00;74.80
31733;DHT22;18312;51.486;7.144;2023-03-01T11:54:09;5.10;74.30
31733;DHT22;18312;51.486;7.144;2023-03-01T11:56:55;5.10;74.10
31733;DHT22;18312;51.486;7.144;2023-03-01T11:59:33;5.10;74.10
31733;DHT22;18312;51.486;7.144;2023-03-01T12:02:16;5.00;74.10
31733;DHT22;18312;51.486;7.144;2023-03-01T12:04:58;5.00;73.20
31733;DHT22;18312;51.486;7.144;2023-03-01T12:07:32;5.10;74.20
31733;DHT22;18312;51.486;7.144;2023-03-01T12:10:15;5.20;74.10
31733;DHT22;18312;51.486;7.144;2023-03-01T12:12:48;5.20;74.00
31733;DHT22;18312;51.486;7.144;2023-03-01T12:18:19;5.30;73.70
31733;DHT22;18312;51.486;7.144;2023-03-01T12:20:51;5.30;74.10
31733;DHT22;18312;51.486;7.144;2023-03-01T12:23:38;5.50;74.10
31733;DHT22;18312;51.486;7.144;2023-03-01T12:26:16;5.50;73.70
31733;DHT22;18312;51.486;7.144;2023-03-01T12:28:48;5.50;72.60
31733;DHT22;18312;51.486;7.144;2023-03-01T12:34:03;5.80;74.40
31733;DHT22;18312;51.486;7.144;2023-03-01T12:36:38;6.00;73.50
31733;DHT22;18312;51.486;7.144;2023-03-01T12:39:12;6.10;73.60
31733;DHT22;18312;51.486;7.144;2023-03-01T12:41:43;6.20;72.30
31733;DHT22;18312;51.486;7.144;2023-03-01T12:44:15;6.10;71.70
31733;DHT22;18312;51.486;7.144;2023-03-01T12:46:51;6.10;71.30
31733;DHT22;18312;51.486;7.144;2023-03-01T12:49:23;6.00;71.40
31733;DHT22;18312;51.486;7.144;2023-03-01T12:51:57;5.90;72.80
31733;DHT22;18312;51.486;7.144;2023-03-01T12:54:27;5.90;73.90
31733;DHT22;18312;51.486;7.144;2023-03-01T12:56:56;5.90;70.60
31733;DHT22;18312;51.486;7.144;2023-03-01T12:59:24;5.80;69.70
31733;DHT22;18312;51.486;7.144;2023-03-01T13:01:55;5.90;70.50
31733;DHT22;18312;51.486;7.144;2023-03-01T13:04:31;6.10;71.00
31733;DHT22;18312;51.486;7.144;2023-03-01T13:07:04;6.10;70.50
31733;DHT22;18312;51.486;7.144;2023-03-01T13:09:38;6.10;71.00
31733;DHT22;18312;51.486;7.144;2023-03-01T13:14:54;6.20;70.60
31733;DHT22;18312;51.486;7.144;2023-03-01T13:17:31;6.20;70.30
31733;DHT22;18312;51.486;7.144;2023-03-01T13:19:58;6.40;70.70
31733;DHT22;18312;51.486;7.144;2023-03-01T13:22:27;6.30;70.70
31733;DHT22;18312;51.486;7.144;2023-03-01T13:25:02;6.30;71.20
31733;DHT22;18312;51.486;7.144;2023-03-01T13:27:29;6.40;70.50
31733;DHT22;18312;51.486;7.144;2023-03-01T13:29:57;6.50;69.30
31733;DHT22;18312;51.486;7.144;2023-03-01T13:32:28;6.50;69.70
31733;DHT22;18312;51.486;7.144;2023-03-01T13:34:58;6.50;69.20
31733;DHT22;18312;51.486;7.144;2023-03-01T13:37:29;6.60;68.80
31733;DHT22;18312;51.486;7.144;2023-03-01T13:39:56;6.50;68.30
31733;DHT22;18312;51.486;7.144;2023-03-01T13:42:30;6.60;68.10
31733;DHT22;18312;51.486;7.144;2023-03-01T13:44:57;6.70;68.20
31733;DHT22;18312;51.486;7.144;2023-03-01T13:47:24;6.80;67.60
31733;DHT22;18312;51.486;7.144;2023-03-01T13:49:52;6.90;67.40
31733;DHT22;18312;51.486;7.144;2023-03-01T13:52:32;6.70;67.10
31733;DHT22;18312;51.486;7.144;2023-03-01T13:55:00;6.80;67.70
31733;DHT22;18312;51.486;7.144;2023-03-01T13:57:32;7.00;68.00
31733;DHT22;18312;51.486;7.144;2023-03-01T13:59:59;7.00;67.40
31733;DHT22;18312;51.486;7.144;2023-03-01T14:02:26;7.00;68.10
31733;DHT22;18312;51.486;7.144;2023-03-01T14:04:56;7.00;67.90
31733;DHT22;18312;51.486;7.144;2023-03-01T14:07:24;7.00;67.50
31733;DHT22;18312;51.486;7.144;2023-03-01T14:09:56;7.00;67.30
31733;DHT22;18312;51.486;7.144;2023-03-01T14:15:08;6.90;67.40
31733;DHT22;18312;51.486;7.144;2023-03-01T14:17:44;7.00;67.70
31733;DHT22;18312;51.486;7.144;2023-03-01T14:20:14;7.10;67.90
31733;DHT22;18312;51.486;7.144;2023-03-01T14:22:43;6.90;67.30
31733;DHT22;18312;51.486;7.144;2023-03-01T14:25:20;6.80;67.70
31733;DHT22;18312;51.486;7.144;2023-03-01T14:27:51;6.90;68.00
31733;DHT22;18312;51.486;7.144;2023-03-01T14:30:21;7.00;67.80
31733;DHT22;18312;51.486;7.144;2023-03-01T14:32:52;7.00;67.60
31733;DHT22;18312;51.486;7.144;2023-03-01T14:35:20;7.10;68.00
31733;DHT22;18312;51.486;7.144;2023-03-01T14:37:49;7.10;68.00
31733;DHT22;18312;51.486;7.144;2023-03-01T14:40:20;7.00;67.80
31733;DHT22;18312;51.486;7.144;2023-03-01T14:42:47;6.90;67.90
31733;DHT22;18312;51.486;7.144;2023-03-01T14:45:14;7.00;67.80
31733;DHT22;18312;51.486;7.144;2023-03-01T14:47:43;7.00;67.80
31733;DHT22;18312;51.486;7.144;2023-03-01T14:50:15;7.10;67.70
31733;DHT22;18312;51.486;7.144;2023-03-01T14:52:42;6.90;67.10
31733;DHT22;18312;51.486;7.144;2023-03-01T14:55:13;6.80;67.30
31733;DHT22;18312;51.486;7.144;2023-03-01T14:57:42;6.80;67.80
31733;DHT22;18312;51.486;7.144;2023-03-01T15:00:10;6.70;67.90
31733;DHT22;18312;51.486;7.144;2023-03-01T15:02:44;6.60;68.60
31733;DHT22;18312;51.486;7.144;2023-03-01T15:05:13;6.70;68.80
31733;DHT22;18312;51.486;7.144;2023-03-01T15:07:40;6.60;68.80
31733;DHT22;18312;51.486;7.144;2023-03-01T15:10:16;6.80;69.20
31733;DHT22;18312;51.486;7.144;2023-03-01T15:12:43;6.80;69.00
31733;DHT22;18312;51.486;7.144;2023-03-01T15:15:20;6.70;69.10
31733;DHT22;18312;51.486;7.144;2023-03-01T15:17:50;6.80;69.60
31733;DHT22;18312;51.486;7.144;2023-03-01T15:20:20;6.60;69.10
31733;DHT22;18312;51.486;7.144;2023-03-01T15:22:51;6.60;69.90
31733;DHT22;18312;51.486;7.144;2023-03-01T15:25:18;6.60;69.10
31733;DHT22;18312;51.486;7.144;2023-03-01T15:27:46;6.60;69.60
31733;DHT22;18312;51.486;7.144;2023-03-01T15:30:17;6.60;68.60
31733;DHT22;18312;51.486;7.144;2023-03-01T15:32:44;6.60;68.70
31733;DHT22;18312;51.486;7.144;2023-03-01T15:37:58;6.60;68.00
31733;DHT22;18312;51.486;7.144;2023-03-01T15:40:26;6.50;68.00
31733;DHT22;18312;51.486;7.144;2023-03-01T15:42:57;6.50;68.40
31733;DHT22;18312;51.486;7.144;2023-03-01T15:45:27;6.50;68.40
31733;DHT22;18312;51.486;7.144;2023-03-01T15:47:54;6.40;68.90
31733;DHT22;18312;51.486;7.144;2023-03-01T15:50:23;6.40;68.80
31733;DHT22;18312;51.486;7.144;2023-03-01T15:52:51;6.30;69.50
31733;DHT22;18312;51.486;7.144;2023-03-01T15:55:19;6.40;69.30
31733;DHT22;18312;51.486;7.144;2023-03-01T15:57:47;6.40;69.20
31733;DHT22;18312;51.486;7.144;2023-03-01T16:00:14;6.40;69.30
31733;DHT22;18312;51.486;7.144;2023-03-01T16:02:43;6.30;68.40
31733;DHT22;18312;51.486;7.144;2023-03-01T16:05:12;6.30;68.90
31733;DHT22;18312;51.486;7.144;2023-03-01T16:07:42;6.30;69.00
31733;DHT22;18312;51.486;7.144;2023-03-01T16:10:09;6.30;68.70